sensor_id;sensor_type;location;lat;lon;timestamp;P1;durP1;ratioP1;P2;durP2;ratioP2
69185;SDS011;56298;49.246;9.410;2023-08-01T00:00:51;10.03;;;4.10;;
69185;SDS011;56298;49.246;9.410;2023-08-01T00:03:17;8.20;;;3.73;;
69185;SDS011;56298;49.246;9.410;2023-08-01T00:05:42;8.87;;;3.70;;
69185;SDS011;56298;49.246;9.410;2023-08-01T00:08:11;9.73;;;3.75;;
69185;SDS011;56298;49.246;9.410;2023-08-01T00:10:42;10.07;;;4.10;;
69185;SDS011;56298;49.246;9.410;2023-08-01T00:13:08;8.90;;;4.00;;
69185;SDS011;56298;49.246;9.410;2023-08-01T00:15:34;9.73;;;3.80;;
69185;SDS011;56298;49.246;9.410;2023-08-01T00:17:59;9.40;;;3.80;;
69185;SDS011;56298;49.246;9.410;2023-08-01T00:20:24;7.90;;;3.35;;
69185;SDS011;56298;49.246;9.410;2023-08-01T00:22:50;10.23;;;3.43;;
69185;SDS011;56298;49.246;9.410;2023-08-01T00:25:15;9.47;;;3.63;;
69185;SDS011;56298;49.246;9.410;2023-08-01T00:27:42;9.65;;;3.50;;
69185;SDS011;56298;49.246;9.410;2023-08-01T00:30:07;9.17;;;3.27;;
69185;SDS011;56298;49.246;9.410;2023-08-01T00:32:33;9.20;;;3.60;;
69185;SDS011;56298;49.246;9.410;2023-08-01T00:34:59;8.37;;;3.40;;
69185;SDS011;56298;49.246;9.410;2023-08-01T00:37:24;8.47;;;3.57;;
69185;SDS011;56298;49.246;9.410;2023-08-01T00:39:49;9.17;;;3.80;;
69185;SDS011;56298;49.246;9.410;2023-08-01T00:42:15;8.57;;;3.23;;
69185;SDS011;56298;49.246;9.410;2023-08-01T00:44:40;8.65;;;3.70;;
69185;SDS011;56298;49.246;9.410;2023-08-01T00:47:06;9.10;;;3.50;;
69185;SDS011;56298;49.246;9.410;2023-08-01T00:49:32;8.60;;;3.83;;
69185;SDS011;56298;49.246;9.410;2023-08-01T00:51:57;12.47;;;4.33;;
69185;SDS011;56298;49.246;9.410;2023-08-01T00:54:22;8.97;;;3.80;;
69185;SDS011;56298;49.246;9.410;2023-08-01T00:56:48;8.57;;;3.63;;
69185;SDS011;56298;49.246;9.410;2023-08-01T00:59:13;9.82;;;3.72;;
69185;SDS011;56298;49.246;9.410;2023-08-01T01:01:38;9.32;;;3.67;;
69185;SDS011;56298;49.246;9.410;2023-08-01T01:04:04;10.67;;;3.77;;
69185;SDS011;56298;49.246;9.410;2023-08-01T01:06:34;8.20;;;3.35;;
69185;SDS011;56298;49.246;9.410;2023-08-01T01:09:14;9.27;;;3.73;;
69185;SDS011;56298;49.246;9.410;2023-08-01T01:11:40;9.57;;;3.90;;
69185;SDS011;56298;49.246;9.410;2023-08-01T01:14:05;8.93;;;3.73;;
69185;SDS011;56298;49.246;9.410;2023-08-01T01:16:30;8.32;;;3.50;;
69185;SDS011;56298;49.246;9.410;2023-08-01T01:18:56;8.40;;;3.80;;
69185;SDS011;56298;49.246;9.410;2023-08-01T01:21:21;9.63;;;3.57;;
69185;SDS011;56298;49.246;9.410;2023-08-01T01:23:46;9.80;;;3.67;;
69185;SDS011;56298;49.246;9.410;2023-08-01T01:26:13;8.93;;;3.50;;
69185;SDS011;56298;49.246;9.410;2023-08-01T01:28:41;8.05;;;3.67;;
69185;SDS011;56298;49.246;9.410;2023-08-01T01:31:08;9.97;;;3.80;;
69185;SDS011;56298;49.246;9.410;2023-08-01T01:33:33;10.63;;;3.83;;
69185;SDS011;56298;49.246;9.410;2023-08-01T01:36:00;11.15;;;4.28;;
69185;SDS011;56298;49.246;9.410;2023-08-01T01:38:26;8.95;;;3.80;;
69185;SDS011;56298;49.246;9.410;2023-08-01T01:40:51;10.33;;;3.90;;
69185;SDS011;56298;49.246;9.410;2023-08-01T01:43:16;9.23;;;3.90;;
69185;SDS011;56298;49.246;9.410;2023-08-01T01:45:42;9.80;;;3.93;;
69185;SDS011;56298;49.246;9.410;2023-08-01T01:48:07;9.77;;;4.20;;
69185;SDS011;56298;49.246;9.410;2023-08-01T01:50:32;9.07;;;4.03;;
69185;SDS011;56298;49.246;9.410;2023-08-01T01:53:00;9.40;;;3.80;;
69185;SDS011;56298;49.246;9.410;2023-08-01T01:55:26;8.40;;;3.38;;
69185;SDS011;56298;49.246;9.410;2023-08-01T01:57:51;9.17;;;3.67;;
69185;SDS011;56298;49.246;9.410;2023-08-01T02:00:16;8.93;;;3.47;;
69185;SDS011;56298;49.246;9.410;2023-08-01T02:02:41;8.17;;;3.30;;
69185;SDS011;56298;49.246;9.410;2023-08-01T02:05:07;7.27;;;3.53;;
69185;SDS011;56298;49.246;9.410;2023-08-01T02:07:32;9.90;;;3.90;;
69185;SDS011;56298;49.246;9.410;2023-08-01T02:09:58;9.27;;;3.70;;
69185;SDS011;56298;49.246;9.410;2023-08-01T02:12:24;9.32;;;3.28;;
69185;SDS011;56298;49.246;9.410;2023-08-01T02:14:49;10.13;;;3.70;;
69185;SDS011;56298;49.246;9.410;2023-08-01T02:17:15;10.43;;;3.97;;
69185;SDS011;56298;49.246;9.410;2023-08-01T02:19:41;8.50;;;3.38;;
69185;SDS011;56298;49.246;9.410;2023-08-01T02:22:06;9.17;;;3.60;;
69185;SDS011;56298;49.246;9.410;2023-08-01T02:24:31;7.77;;;3.50;;
69185;SDS011;56298;49.246;9.410;2023-08-01T02:26:56;8.75;;;3.60;;
69185;SDS011;56298;49.246;9.410;2023-08-01T02:29:22;8.10;;;3.57;;
69185;SDS011;56298;49.246;9.410;2023-08-01T02:31:47;7.87;;;3.50;;
69185;SDS011;56298;49.246;9.410;2023-08-01T02:34:12;8.47;;;3.40;;
69185;SDS011;56298;49.246;9.410;2023-08-01T02:36:37;9.10;;;3.37;;
69185;SDS011;56298;49.246;9.410;2023-08-01T02:39:05;8.17;;;3.33;;
69185;SDS011;56298;49.246;9.410;2023-08-01T02:41:30;8.10;;;3.10;;
69185;SDS011;56298;49.246;9.410;2023-08-01T02:43:55;9.13;;;3.67;;
69185;SDS011;56298;49.246;9.410;2023-08-01T02:46:21;8.33;;;3.53;;
69185;SDS011;56298;49.246;9.410;2023-08-01T02:48:46;7.90;;;3.27;;
69185;SDS011;56298;49.246;9.410;2023-08-01T02:51:11;7.97;;;3.20;;
69185;SDS011;56298;49.246;9.410;2023-08-01T02:53:37;8.40;;;3.50;;
69185;SDS011;56298;49.246;9.410;2023-08-01T02:56:05;8.47;;;3.30;;
69185;SDS011;56298;49.246;9.410;2023-08-01T02:58:32;7.80;;;3.38;;
69185;SDS011;56298;49.246;9.410;2023-08-01T03:00:57;7.27;;;3.20;;
69185;SDS011;56298;49.246;9.410;2023-08-01T03:03:23;7.47;;;3.20;;
69185;SDS011;56298;49.246;9.410;2023-08-01T03:05:48;7.33;;;3.20;;
69185;SDS011;56298;49.246;9.410;2023-08-01T03:08:13;9.70;;;3.47;;
69185;SDS011;56298;49.246;9.410;2023-08-01T03:10:38;8.30;;;3.50;;
69185;SDS011;56298;49.246;9.410;2023-08-01T03:13:04;8.87;;;3.37;;
69185;SDS011;56298;49.246;9.410;2023-08-01T03:15:29;7.80;;;3.00;;
69185;SDS011;56298;49.246;9.410;2023-08-01T03:17:54;7.53;;;2.90;;
69185;SDS011;56298;49.246;9.410;2023-08-01T03:20:19;7.17;;;2.80;;
69185;SDS011;56298;49.246;9.410;2023-08-01T03:22:45;9.07;;;3.50;;
69185;SDS011;56298;49.246;9.410;2023-08-01T03:25:10;7.17;;;3.33;;
69185;SDS011;56298;49.246;9.410;2023-08-01T03:27:36;7.53;;;3.20;;
69185;SDS011;56298;49.246;9.410;2023-08-01T03:30:01;6.87;;;2.87;;
69185;SDS011;56298;49.246;9.410;2023-08-01T03:32:29;8.30;;;3.40;;
69185;SDS011;56298;49.246;9.410;2023-08-01T03:34:54;7.35;;;3.10;;
69185;SDS011;56298;49.246;9.410;2023-08-01T03:37:19;8.97;;;3.30;;
69185;SDS011;56298;49.246;9.410;2023-08-01T03:39:45;9.13;;;3.60;;
69185;SDS011;56298;49.246;9.410;2023-08-01T03:42:10;8.90;;;3.60;;
69185;SDS011;56298;49.246;9.410;2023-08-01T03:44:35;9.43;;;3.50;;
69185;SDS011;56298;49.246;9.410;2023-08-01T03:47:01;9.37;;;3.40;;
69185;SDS011;56298;49.246;9.410;2023-08-01T03:49:26;9.67;;;3.37;;
69185;SDS011;56298;49.246;9.410;2023-08-01T03:51:51;8.68;;;2.97;;
69185;SDS011;56298;49.246;9.410;2023-08-01T03:54:16;7.40;;;3.10;;
69185;SDS011;56298;49.246;9.410;2023-08-01T03:56:42;7.97;;;3.10;;
69185;SDS011;56298;49.246;9.410;2023-08-01T03:59:08;8.52;;;3.55;;
69185;SDS011;56298;49.246;9.410;2023-08-01T04:01:33;10.23;;;3.63;;
69185;SDS011;56298;49.246;9.410;2023-08-01T04:03:58;8.53;;;3.50;;
69185;SDS011;56298;49.246;9.410;2023-08-01T04:06:24;8.73;;;3.37;;
69185;SDS011;56298;49.246;9.410;2023-08-01T04:08:49;8.03;;;3.40;;
69185;SDS011;56298;49.246;9.410;2023-08-01T04:11:15;8.20;;;3.60;;
69185;SDS011;56298;49.246;9.410;2023-08-01T04:13:40;8.23;;;3.60;;
69185;SDS011;56298;49.246;9.410;2023-08-01T04:16:05;9.43;;;4.00;;
69185;SDS011;56298;49.246;9.410;2023-08-01T04:18:30;11.93;;;4.47;;
69185;SDS011;56298;49.246;9.410;2023-08-01T04:20:56;8.57;;;3.60;;
69185;SDS011;56298;49.246;9.410;2023-08-01T04:23:21;8.80;;;3.97;;
69185;SDS011;56298;49.246;9.410;2023-08-01T04:25:46;9.87;;;4.20;;
69185;SDS011;56298;49.246;9.410;2023-08-01T04:28:11;13.80;;;5.17;;
69185;SDS011;56298;49.246;9.410;2023-08-01T04:30:37;10.67;;;5.13;;
69185;SDS011;56298;49.246;9.410;2023-08-01T04:33:03;10.60;;;5.22;;
69185;SDS011;56298;49.246;9.410;2023-08-01T04:35:28;9.23;;;4.37;;
69185;SDS011;56298;49.246;9.410;2023-08-01T04:37:54;9.70;;;4.47;;
69185;SDS011;56298;49.246;9.410;2023-08-01T04:40:19;11.37;;;4.93;;
69185;SDS011;56298;49.246;9.410;2023-08-01T04:42:44;10.53;;;4.90;;
69185;SDS011;56298;49.246;9.410;2023-08-01T04:45:10;11.10;;;4.13;;
69185;SDS011;56298;49.246;9.410;2023-08-01T04:47:35;11.77;;;4.47;;
69185;SDS011;56298;49.246;9.410;2023-08-01T04:50:00;11.23;;;4.23;;
69185;SDS011;56298;49.246;9.410;2023-08-01T04:52:25;10.57;;;4.13;;
69185;SDS011;56298;49.246;9.410;2023-08-01T04:54:51;9.43;;;4.20;;
69185;SDS011;56298;49.246;9.410;2023-08-01T04:57:16;8.60;;;3.80;;
69185;SDS011;56298;49.246;9.410;2023-08-01T04:59:41;9.53;;;3.70;;
69185;SDS011;56298;49.246;9.410;2023-08-01T05:02:06;8.83;;;3.63;;
69185;SDS011;56298;49.246;9.410;2023-08-01T05:04:32;7.73;;;3.43;;
69185;SDS011;56298;49.246;9.410;2023-08-01T05:06:57;9.27;;;3.50;;
69185;SDS011;56298;49.246;9.410;2023-08-01T05:09:22;10.57;;;3.90;;
69185;SDS011;56298;49.246;9.410;2023-08-01T05:11:49;9.30;;;3.90;;
69185;SDS011;56298;49.246;9.410;2023-08-01T05:14:14;9.65;;;3.70;;
69185;SDS011;56298;49.246;9.410;2023-08-01T05:16:39;8.30;;;3.60;;
69185;SDS011;56298;49.246;9.410;2023-08-01T05:19:04;10.43;;;3.70;;
69185;SDS011;56298;49.246;9.410;2023-08-01T05:21:30;10.17;;;3.60;;
69185;SDS011;56298;49.246;9.410;2023-08-01T05:23:55;9.70;;;3.90;;
69185;SDS011;56298;49.246;9.410;2023-08-01T05:26:20;9.50;;;3.47;;
69185;SDS011;56298;49.246;9.410;2023-08-01T05:28:46;8.48;;;3.60;;
69185;SDS011;56298;49.246;9.410;2023-08-01T05:31:11;9.50;;;3.90;;
69185;SDS011;56298;49.246;9.410;2023-08-01T05:33:36;11.33;;;4.30;;
69185;SDS011;56298;49.246;9.410;2023-08-01T05:36:01;10.67;;;4.37;;
69185;SDS011;56298;49.246;9.410;2023-08-01T05:38:27;10.83;;;4.40;;
69185;SDS011;56298;49.246;9.410;2023-08-01T05:40:52;8.93;;;4.00;;
69185;SDS011;56298;49.246;9.410;2023-08-01T05:43:17;9.00;;;3.87;;
69185;SDS011;56298;49.246;9.410;2023-08-01T05:45:42;10.47;;;4.10;;
69185;SDS011;56298;49.246;9.410;2023-08-01T05:48:08;9.20;;;4.13;;
69185;SDS011;56298;49.246;9.410;2023-08-01T05:50:33;12.30;;;4.63;;
69185;SDS011;56298;49.246;9.410;2023-08-01T05:52:58;10.37;;;4.73;;
69185;SDS011;56298;49.246;9.410;2023-08-01T05:55:24;11.10;;;4.57;;
69185;SDS011;56298;49.246;9.410;2023-08-01T05:57:49;11.27;;;5.13;;
69185;SDS011;56298;49.246;9.410;2023-08-01T06:00:17;13.00;;;4.78;;
69185;SDS011;56298;49.246;9.410;2023-08-01T06:02:44;12.10;;;4.40;;
69185;SDS011;56298;49.246;9.410;2023-08-01T06:05:09;10.47;;;3.97;;
69185;SDS011;56298;49.246;9.410;2023-08-01T06:07:34;9.83;;;4.07;;
69185;SDS011;56298;49.246;9.410;2023-08-01T06:10:00;11.00;;;4.20;;
69185;SDS011;56298;49.246;9.410;2023-08-01T06:12:25;10.03;;;4.10;;
69185;SDS011;56298;49.246;9.410;2023-08-01T06:14:50;9.57;;;4.10;;
69185;SDS011;56298;49.246;9.410;2023-08-01T06:17:15;11.10;;;4.20;;
69185;SDS011;56298;49.246;9.410;2023-08-01T06:19:41;11.20;;;4.13;;
69185;SDS011;56298;49.246;9.410;2023-08-01T06:22:06;13.80;;;4.93;;
69185;SDS011;56298;49.246;9.410;2023-08-01T06:24:32;11.27;;;4.67;;
69185;SDS011;56298;49.246;9.410;2023-08-01T06:26:57;11.27;;;4.73;;
69185;SDS011;56298;49.246;9.410;2023-08-01T06:29:22;12.50;;;4.47;;
69185;SDS011;56298;49.246;9.410;2023-08-01T06:31:49;11.38;;;4.35;;
69185;SDS011;56298;49.246;9.410;2023-08-01T06:34:14;13.75;;;4.90;;
69185;SDS011;56298;49.246;9.410;2023-08-01T06:36:39;11.80;;;4.90;;
69185;SDS011;56298;49.246;9.410;2023-08-01T06:39:05;13.37;;;4.73;;
69185;SDS011;56298;49.246;9.410;2023-08-01T06:41:30;13.15;;;4.30;;
69185;SDS011;56298;49.246;9.410;2023-08-01T06:43:56;14.23;;;4.40;;
69185;SDS011;56298;49.246;9.410;2023-08-01T06:46:21;11.77;;;4.90;;
69185;SDS011;56298;49.246;9.410;2023-08-01T06:48:46;14.47;;;5.30;;
69185;SDS011;56298;49.246;9.410;2023-08-01T06:51:12;16.50;;;5.47;;
69185;SDS011;56298;49.246;9.410;2023-08-01T06:53:38;10.73;;;4.60;;
69185;SDS011;56298;49.246;9.410;2023-08-01T06:56:04;11.00;;;5.07;;
69185;SDS011;56298;49.246;9.410;2023-08-01T06:58:29;10.23;;;4.40;;
69185;SDS011;56298;49.246;9.410;2023-08-01T07:00:54;10.10;;;4.20;;
69185;SDS011;56298;49.246;9.410;2023-08-01T07:03:19;11.70;;;4.53;;
69185;SDS011;56298;49.246;9.410;2023-08-01T07:05:45;10.77;;;4.73;;
69185;SDS011;56298;49.246;9.410;2023-08-01T07:08:10;13.33;;;4.80;;
69185;SDS011;56298;49.246;9.410;2023-08-01T07:10:35;11.03;;;4.80;;
69185;SDS011;56298;49.246;9.410;2023-08-01T07:13:01;11.27;;;4.63;;
69185;SDS011;56298;49.246;9.410;2023-08-01T07:15:30;10.80;;;4.68;;
69185;SDS011;56298;49.246;9.410;2023-08-01T07:17:56;12.23;;;4.20;;
69185;SDS011;56298;49.246;9.410;2023-08-01T07:20:22;11.93;;;4.67;;
69185;SDS011;56298;49.246;9.410;2023-08-01T07:22:47;11.17;;;4.30;;
69185;SDS011;56298;49.246;9.410;2023-08-01T07:25:12;16.37;;;4.50;;
69185;SDS011;56298;49.246;9.410;2023-08-01T07:27:37;12.77;;;4.87;;
69185;SDS011;56298;49.246;9.410;2023-08-01T07:30:04;11.50;;;4.00;;
69185;SDS011;56298;49.246;9.410;2023-08-01T07:32:30;10.63;;;4.20;;
69185;SDS011;56298;49.246;9.410;2023-08-01T07:34:55;13.27;;;4.50;;
69185;SDS011;56298;49.246;9.410;2023-08-01T07:37:20;14.33;;;4.33;;
69185;SDS011;56298;49.246;9.410;2023-08-01T07:39:46;9.40;;;3.77;;
69185;SDS011;56298;49.246;9.410;2023-08-01T07:42:11;9.73;;;3.77;;
69185;SDS011;56298;49.246;9.410;2023-08-01T07:44:36;9.10;;;3.53;;
69185;SDS011;56298;49.246;9.410;2023-08-01T07:47:01;9.43;;;3.80;;
69185;SDS011;56298;49.246;9.410;2023-08-01T07:49:27;10.70;;;3.90;;
69185;SDS011;56298;49.246;9.410;2023-08-01T07:51:52;9.93;;;3.60;;
69185;SDS011;56298;49.246;9.410;2023-08-01T07:54:17;9.73;;;4.30;;
69185;SDS011;56298;49.246;9.410;2023-08-01T07:56:43;7.67;;;3.40;;
69185;SDS011;56298;49.246;9.410;2023-08-01T07:59:08;8.87;;;3.80;;
69185;SDS011;56298;49.246;9.410;2023-08-01T08:01:35;10.13;;;4.00;;
69185;SDS011;56298;49.246;9.410;2023-08-01T08:04:00;10.05;;;3.90;;
69185;SDS011;56298;49.246;9.410;2023-08-01T08:06:25;8.32;;;3.60;;
69185;SDS011;56298;49.246;9.410;2023-08-01T08:08:51;8.87;;;3.67;;
69185;SDS011;56298;49.246;9.410;2023-08-01T08:11:16;9.27;;;4.20;;
69185;SDS011;56298;49.246;9.410;2023-08-01T08:13:41;8.43;;;3.50;;
69185;SDS011;56298;49.246;9.410;2023-08-01T08:16:07;11.27;;;4.18;;
69185;SDS011;56298;49.246;9.410;2023-08-01T08:18:32;9.37;;;3.70;;
69185;SDS011;56298;49.246;9.410;2023-08-01T08:20:57;7.90;;;3.77;;
69185;SDS011;56298;49.246;9.410;2023-08-01T08:23:23;9.68;;;4.40;;
69185;SDS011;56298;49.246;9.410;2023-08-01T08:25:48;9.60;;;4.07;;
69185;SDS011;56298;49.246;9.410;2023-08-01T08:28:14;10.63;;;4.22;;
69185;SDS011;56298;49.246;9.410;2023-08-01T08:30:40;8.97;;;4.00;;
69185;SDS011;56298;49.246;9.410;2023-08-01T08:33:05;9.90;;;3.90;;
69185;SDS011;56298;49.246;9.410;2023-08-01T08:35:32;9.77;;;3.78;;
69185;SDS011;56298;49.246;9.410;2023-08-01T08:38:01;8.30;;;3.53;;
69185;SDS011;56298;49.246;9.410;2023-08-01T08:40:27;8.60;;;3.70;;
69185;SDS011;56298;49.246;9.410;2023-08-01T08:42:52;7.75;;;3.47;;
69185;SDS011;56298;49.246;9.410;2023-08-01T08:45:19;8.45;;;3.60;;
69185;SDS011;56298;49.246;9.410;2023-08-01T08:47:46;6.90;;;3.55;;
69185;SDS011;56298;49.246;9.410;2023-08-01T08:50:16;7.73;;;3.20;;
69185;SDS011;56298;49.246;9.410;2023-08-01T08:52:42;9.02;;;3.45;;
69185;SDS011;56298;49.246;9.410;2023-08-01T08:55:07;7.68;;;3.13;;
69185;SDS011;56298;49.246;9.410;2023-08-01T08:57:33;6.83;;;2.90;;
69185;SDS011;56298;49.246;9.410;2023-08-01T08:59:58;6.10;;;2.90;;
69185;SDS011;56298;49.246;9.410;2023-08-01T09:02:28;6.23;;;2.33;;
69185;SDS011;56298;49.246;9.410;2023-08-01T09:04:53;6.53;;;2.53;;
69185;SDS011;56298;49.246;9.410;2023-08-01T09:07:19;6.33;;;2.60;;
69185;SDS011;56298;49.246;9.410;2023-08-01T09:09:48;9.18;;;2.95;;
69185;SDS011;56298;49.246;9.410;2023-08-01T09:12:14;7.03;;;3.00;;
69185;SDS011;56298;49.246;9.410;2023-08-01T09:14:39;7.63;;;3.00;;
69185;SDS011;56298;49.246;9.410;2023-08-01T09:17:05;7.07;;;3.00;;
69185;SDS011;56298;49.246;9.410;2023-08-01T09:19:32;7.32;;;3.10;;
69185;SDS011;56298;49.246;9.410;2023-08-01T09:21:58;7.47;;;2.73;;
69185;SDS011;56298;49.246;9.410;2023-08-01T09:24:23;7.03;;;3.00;;
69185;SDS011;56298;49.246;9.410;2023-08-01T09:26:48;7.60;;;3.10;;
69185;SDS011;56298;49.246;9.410;2023-08-01T09:29:17;6.20;;;2.57;;
69185;SDS011;56298;49.246;9.410;2023-08-01T09:31:44;7.25;;;2.55;;
69185;SDS011;56298;49.246;9.410;2023-08-01T09:34:20;6.23;;;2.10;;
69185;SDS011;56298;49.246;9.410;2023-08-01T09:36:46;6.10;;;1.88;;
69185;SDS011;56298;49.246;9.410;2023-08-01T09:39:19;5.93;;;1.98;;
69185;SDS011;56298;49.246;9.410;2023-08-01T09:41:46;4.20;;;1.30;;
69185;SDS011;56298;49.246;9.410;2023-08-01T09:44:15;4.47;;;0.98;;
69185;SDS011;56298;49.246;9.410;2023-08-01T09:46:40;3.70;;;0.80;;
69185;SDS011;56298;49.246;9.410;2023-08-01T09:49:10;3.60;;;0.80;;
69185;SDS011;56298;49.246;9.410;2023-08-01T09:51:46;4.27;;;0.93;;
69185;SDS011;56298;49.246;9.410;2023-08-01T09:54:13;3.83;;;0.80;;
69185;SDS011;56298;49.246;9.410;2023-08-01T09:56:39;3.30;;;0.77;;
69185;SDS011;56298;49.246;9.410;2023-08-01T09:59:07;3.20;;;0.90;;
69185;SDS011;56298;49.246;9.410;2023-08-01T10:01:32;3.30;;;0.77;;
69185;SDS011;56298;49.246;9.410;2023-08-01T10:03:58;4.90;;;0.88;;
69185;SDS011;56298;49.246;9.410;2023-08-01T10:06:24;3.60;;;0.90;;
69185;SDS011;56298;49.246;9.410;2023-08-01T10:08:53;3.80;;;0.90;;
69185;SDS011;56298;49.246;9.410;2023-08-01T10:11:19;4.03;;;1.10;;
69185;SDS011;56298;49.246;9.410;2023-08-01T10:13:46;3.53;;;1.00;;
69185;SDS011;56298;49.246;9.410;2023-08-01T10:16:11;4.27;;;1.00;;
69185;SDS011;56298;49.246;9.410;2023-08-01T10:18:38;3.58;;;1.00;;
69185;SDS011;56298;49.246;9.410;2023-08-01T10:21:05;3.10;;;0.90;;
69185;SDS011;56298;49.246;9.410;2023-08-01T10:23:34;2.90;;;0.80;;
69185;SDS011;56298;49.246;9.410;2023-08-01T10:26:00;3.53;;;0.85;;
69185;SDS011;56298;49.246;9.410;2023-08-01T10:28:34;3.22;;;0.85;;
69185;SDS011;56298;49.246;9.410;2023-08-01T10:31:14;3.38;;;0.80;;
69185;SDS011;56298;49.246;9.410;2023-08-01T10:33:44;3.35;;;0.90;;
69185;SDS011;56298;49.246;9.410;2023-08-01T10:36:17;4.18;;;0.77;;
69185;SDS011;56298;49.246;9.410;2023-08-01T10:38:46;4.78;;;0.90;;
69185;SDS011;56298;49.246;9.410;2023-08-01T10:44:05;4.00;;;1.00;;
69185;SDS011;56298;49.246;9.410;2023-08-01T10:49:12;3.90;;;0.90;;
69185;SDS011;56298;49.246;9.410;2023-08-01T10:51:38;3.70;;;0.80;;
69185;SDS011;56298;49.246;9.410;2023-08-01T10:54:03;3.53;;;0.90;;
69185;SDS011;56298;49.246;9.410;2023-08-01T10:56:28;3.23;;;0.90;;
69185;SDS011;56298;49.246;9.410;2023-08-01T10:58:56;2.97;;;0.80;;
69185;SDS011;56298;49.246;9.410;2023-08-01T11:01:22;3.97;;;0.80;;
69185;SDS011;56298;49.246;9.410;2023-08-01T11:03:47;3.53;;;0.80;;
69185;SDS011;56298;49.246;9.410;2023-08-01T11:06:13;3.00;;;0.73;;
69185;SDS011;56298;49.246;9.410;2023-08-01T11:08:38;3.43;;;0.80;;
69185;SDS011;56298;49.246;9.410;2023-08-01T11:11:05;3.35;;;0.60;;
69185;SDS011;56298;49.246;9.410;2023-08-01T11:13:35;3.10;;;0.50;;
69185;SDS011;56298;49.246;9.410;2023-08-01T11:16:04;2.92;;;0.60;;
69185;SDS011;56298;49.246;9.410;2023-08-01T11:18:39;2.80;;;0.55;;
69185;SDS011;56298;49.246;9.410;2023-08-01T11:21:06;4.93;;;0.80;;
69185;SDS011;56298;49.246;9.410;2023-08-01T11:23:31;2.63;;;0.50;;
69185;SDS011;56298;49.246;9.410;2023-08-01T11:25:56;3.57;;;0.63;;
69185;SDS011;56298;49.246;9.410;2023-08-01T11:28:22;3.90;;;0.70;;
69185;SDS011;56298;49.246;9.410;2023-08-01T11:30:49;3.15;;;0.75;;
69185;SDS011;56298;49.246;9.410;2023-08-01T11:33:23;3.50;;;0.80;;
69185;SDS011;56298;49.246;9.410;2023-08-01T11:35:52;3.63;;;1.08;;
69185;SDS011;56298;49.246;9.410;2023-08-01T11:38:21;3.75;;;0.80;;
69185;SDS011;56298;49.246;9.410;2023-08-01T11:40:51;3.47;;;0.90;;
69185;SDS011;56298;49.246;9.410;2023-08-01T11:43:16;3.40;;;0.90;;
69185;SDS011;56298;49.246;9.410;2023-08-01T11:45:51;3.37;;;0.80;;
69185;SDS011;56298;49.246;9.410;2023-08-01T11:48:24;3.23;;;0.70;;
69185;SDS011;56298;49.246;9.410;2023-08-01T11:50:56;3.28;;;0.70;;
69185;SDS011;56298;49.246;9.410;2023-08-01T11:53:23;3.13;;;0.60;;
69185;SDS011;56298;49.246;9.410;2023-08-01T11:55:48;4.80;;;0.82;;
69185;SDS011;56298;49.246;9.410;2023-08-01T11:58:27;3.30;;;0.70;;
69185;SDS011;56298;49.246;9.410;2023-08-01T12:01:09;3.08;;;0.60;;
69185;SDS011;56298;49.246;9.410;2023-08-01T12:03:49;3.58;;;0.80;;
69185;SDS011;56298;49.246;9.410;2023-08-01T12:06:15;4.15;;;0.70;;
69185;SDS011;56298;49.246;9.410;2023-08-01T12:08:41;4.93;;;0.93;;
69185;SDS011;56298;49.246;9.410;2023-08-01T12:11:20;4.00;;;0.90;;
69185;SDS011;56298;49.246;9.410;2023-08-01T12:13:47;3.70;;;0.90;;
69185;SDS011;56298;49.246;9.410;2023-08-01T12:16:13;3.60;;;1.10;;
69185;SDS011;56298;49.246;9.410;2023-08-01T12:18:42;3.37;;;0.87;;
69185;SDS011;56298;49.246;9.410;2023-08-01T12:21:09;3.53;;;0.90;;
69185;SDS011;56298;49.246;9.410;2023-08-01T12:23:35;3.83;;;0.70;;
69185;SDS011;56298;49.246;9.410;2023-08-01T12:26:01;3.83;;;1.00;;
69185;SDS011;56298;49.246;9.410;2023-08-01T12:28:26;3.47;;;0.80;;
69185;SDS011;56298;49.246;9.410;2023-08-01T12:30:51;4.40;;;0.80;;
69185;SDS011;56298;49.246;9.410;2023-08-01T12:33:16;4.37;;;0.93;;
69185;SDS011;56298;49.246;9.410;2023-08-01T12:35:42;3.33;;;0.80;;
69185;SDS011;56298;49.246;9.410;2023-08-01T12:38:07;3.40;;;0.80;;
69185;SDS011;56298;49.246;9.410;2023-08-01T12:40:33;3.33;;;0.73;;
69185;SDS011;56298;49.246;9.410;2023-08-01T12:42:59;3.45;;;0.80;;
69185;SDS011;56298;49.246;9.410;2023-08-01T12:45:24;4.67;;;0.90;;
69185;SDS011;56298;49.246;9.410;2023-08-01T12:47:49;3.87;;;1.00;;
69185;SDS011;56298;49.246;9.410;2023-08-01T12:50:15;3.63;;;0.80;;
69185;SDS011;56298;49.246;9.410;2023-08-01T12:52:40;3.30;;;0.80;;
69185;SDS011;56298;49.246;9.410;2023-08-01T12:55:06;4.07;;;0.90;;
69185;SDS011;56298;49.246;9.410;2023-08-01T12:57:31;3.55;;;0.82;;
69185;SDS011;56298;49.246;9.410;2023-08-01T12:59:56;4.23;;;0.70;;
69185;SDS011;56298;49.246;9.410;2023-08-01T13:02:22;3.70;;;0.80;;
69185;SDS011;56298;49.246;9.410;2023-08-01T13:04:47;4.43;;;0.63;;
69185;SDS011;56298;49.246;9.410;2023-08-01T13:07:12;4.80;;;0.90;;
69185;SDS011;56298;49.246;9.410;2023-08-01T13:09:38;3.60;;;0.90;;
69185;SDS011;56298;49.246;9.410;2023-08-01T13:12:03;4.80;;;0.98;;
69185;SDS011;56298;49.246;9.410;2023-08-01T13:14:31;5.63;;;0.90;;
69185;SDS011;56298;49.246;9.410;2023-08-01T13:16:56;3.60;;;0.80;;
69185;SDS011;56298;49.246;9.410;2023-08-01T13:19:21;3.77;;;0.73;;
69185;SDS011;56298;49.246;9.410;2023-08-01T13:21:47;4.17;;;0.90;;
69185;SDS011;56298;49.246;9.410;2023-08-01T13:24:12;3.80;;;0.90;;
69185;SDS011;56298;49.246;9.410;2023-08-01T13:26:37;3.70;;;0.90;;
69185;SDS011;56298;49.246;9.410;2023-08-01T13:29:03;4.40;;;0.93;;
69185;SDS011;56298;49.246;9.410;2023-08-01T13:31:28;3.50;;;0.70;;
69185;SDS011;56298;49.246;9.410;2023-08-01T13:33:53;3.20;;;1.00;;
69185;SDS011;56298;49.246;9.410;2023-08-01T13:36:19;3.97;;;0.95;;
69185;SDS011;56298;49.246;9.410;2023-08-01T13:38:44;4.20;;;0.90;;
69185;SDS011;56298;49.246;9.410;2023-08-01T13:41:10;4.53;;;1.00;;
69185;SDS011;56298;49.246;9.410;2023-08-01T13:43:35;3.90;;;1.00;;
69185;SDS011;56298;49.246;9.410;2023-08-01T13:46:01;4.32;;;1.00;;
69185;SDS011;56298;49.246;9.410;2023-08-01T13:48:32;3.80;;;0.70;;
69185;SDS011;56298;49.246;9.410;2023-08-01T13:50:58;3.53;;;0.80;;
69185;SDS011;56298;49.246;9.410;2023-08-01T13:53:24;4.00;;;0.75;;
69185;SDS011;56298;49.246;9.410;2023-08-01T13:55:49;3.47;;;0.80;;
69185;SDS011;56298;49.246;9.410;2023-08-01T13:58:14;3.57;;;0.80;;
69185;SDS011;56298;49.246;9.410;2023-08-01T14:00:39;5.90;;;0.93;;
69185;SDS011;56298;49.246;9.410;2023-08-01T14:03:04;3.23;;;0.63;;
69185;SDS011;56298;49.246;9.410;2023-08-01T14:05:30;4.50;;;0.80;;
69185;SDS011;56298;49.246;9.410;2023-08-01T14:07:55;4.23;;;0.90;;
69185;SDS011;56298;49.246;9.410;2023-08-01T14:10:21;4.20;;;0.90;;
69185;SDS011;56298;49.246;9.410;2023-08-01T14:12:46;4.27;;;0.90;;
69185;SDS011;56298;49.246;9.410;2023-08-01T14:15:12;3.93;;;0.77;;
69185;SDS011;56298;49.246;9.410;2023-08-01T14:17:38;3.40;;;0.70;;
69185;SDS011;56298;49.246;9.410;2023-08-01T14:20:04;3.30;;;0.80;;
69185;SDS011;56298;49.246;9.410;2023-08-01T14:22:29;4.20;;;0.82;;
69185;SDS011;56298;49.246;9.410;2023-08-01T14:24:55;3.30;;;0.80;;
69185;SDS011;56298;49.246;9.410;2023-08-01T14:27:20;4.57;;;0.80;;
69185;SDS011;56298;49.246;9.410;2023-08-01T14:29:47;3.70;;;0.80;;
69185;SDS011;56298;49.246;9.410;2023-08-01T14:32:12;4.78;;;0.88;;
69185;SDS011;56298;49.246;9.410;2023-08-01T14:34:38;3.80;;;0.80;;
69185;SDS011;56298;49.246;9.410;2023-08-01T14:37:03;4.63;;;0.80;;
69185;SDS011;56298;49.246;9.410;2023-08-01T14:39:28;3.43;;;0.80;;
69185;SDS011;56298;49.246;9.410;2023-08-01T14:41:54;3.70;;;0.80;;
69185;SDS011;56298;49.246;9.410;2023-08-01T14:44:19;4.07;;;0.90;;